Time;durP1;ratioP1;P1;durP2;ratioP2;P2;SDS_P1;SDS_P2;PMS_P1;PMS_P2;Temp;Humidity;BMP_temperature;BMP_pressure;BME280_temperature;BME280_humidity;BME280_pressure;Samples;Min_cycle;Max_cycle;Signal;HPM_P1;HPM_P2
2023/04/17 00:01:54;;;;;;;35.72;31.70;;;;;;;;;;5020290;28;20412;-81
2023/04/17 00:04:20;;;;;;;35.03;31.23;;;;;;;;;;5033920;28;20481;-81
2023/04/17 00:06:48;;;;;;;38.20;32.13;;;;;;;;;;5052628;28;20439;-81
2023/04/17 00:09:14;;;;;;;39.80;31.83;;;;;;;;;;5044824;28;20448;-81
2023/04/17 00:11:40;;;;;;;35.72;31.67;;;;;;;;;;5031917;28;20419;-80
2023/04/17 00:14:06;;;;;;;38.77;33.00;;;;;;;;;;5051139;28;20570;-81
2023/04/17 00:16:32;;;;;;;39.27;32.10;;;;;;;;;;5051842;28;20451;-81
2023/04/17 00:18:58;;;;;;;39.10;32.80;;;;;;;;;;5041131;28;20515;-80
2023/04/17 00:21:24;;;;;;;38.97;32.72;;;;;;;;;;5050903;28;20407;-81
2023/04/17 00:23:50;;;;;;;39.65;33.03;;;;;;;;;;5034676;28;20460;-83
2023/04/17 00:26:18;;;;;;;41.60;33.97;;;;;;;;;;5017320;28;20448;-82
2023/04/17 00:28:46;;;;;;;41.50;33.70;;;;;;;;;;5021534;28;20416;-82
2023/04/17 00:31:12;;;;;;;40.83;34.08;;;;;;;;;;5019814;28;20512;-83
2023/04/17 00:33:38;;;;;;;41.03;35.03;;;;;;;;;;5021289;28;20598;-83
2023/04/17 00:36:04;;;;;;;43.85;33.90;;;;;;;;;;5055839;28;20439;-83
2023/04/17 00:38:30;;;;;;;42.30;34.47;;;;;;;;;;5038529;28;20423;-82
2023/04/17 00:40:56;;;;;;;41.75;34.38;;;;;;;;;;5030781;28;20416;-82
2023/04/17 00:43:22;;;;;;;40.80;32.67;;;;;;;;;;5055082;28;20399;-82
2023/04/17 00:45:49;;;;;;;41.17;33.70;;;;;;;;;;5034575;28;20425;-82
2023/04/17 00:48:16;;;;;;;42.97;34.20;;;;;;;;;;5043880;28;20416;-82
2023/04/17 00:50:43;;;;;;;41.67;34.60;;;;;;;;;;5038424;28;20434;-83
2023/04/17 00:53:09;;;;;;;45.15;35.55;;;;;;;;;;5033442;28;20523;-83
2023/04/17 00:55:37;;;;;;;44.23;35.33;;;;;;;;;;5037671;28;20499;-82
2023/04/17 00:58:03;;;;;;;44.42;35.55;;;;;;;;;;5047642;28;20522;-82
2023/04/17 01:00:29;;;;;;;43.47;34.35;;;;;;;;;;5038708;28;20408;-83
2023/04/17 01:02:59;;;;;;;44.72;34.83;;;;;;;;;;5032780;28;20426;-83
2023/04/17 01:05:26;;;;;;;43.05;34.95;;;;;;;;;;5045807;28;20423;-83
2023/04/17 01:07:52;;;;;;;42.35;34.72;;;;;;;;;;5038240;28;20415;-83
2023/04/17 01:10:18;;;;;;;44.73;36.20;;;;;;;;;;5054645;28;20428;-83
2023/04/17 01:12:47;;;;;;;42.17;34.08;;;;;;;;;;5038140;28;20507;-82
2023/04/17 01:15:14;;;;;;;44.75;35.55;;;;;;;;;;5036797;28;20426;-84
2023/04/17 01:17:40;;;;;;;41.50;32.83;;;;;;;;;;5032318;28;20476;-85
2023/04/17 01:20:09;;;;;;;43.72;35.35;;;;;;;;;;5011806;28;20433;-88
2023/04/17 01:22:35;;;;;;;41.13;34.63;;;;;;;;;;5024851;28;20412;-88
2023/04/17 01:25:01;;;;;;;43.50;35.00;;;;;;;;;;5027792;28;20428;-87
2023/04/17 01:27:27;;;;;;;42.15;34.25;;;;;;;;;;5025011;28;20429;-88
2023/04/17 01:29:53;;;;;;;43.37;35.43;;;;;;;;;;5007566;28;20479;-89
2023/04/17 01:32:20;;;;;;;41.17;34.27;;;;;;;;;;5007106;28;20522;-88
2023/04/17 01:34:46;;;;;;;41.65;34.67;;;;;;;;;;5023611;28;20425;-88
2023/04/17 01:37:12;;;;;;;42.97;35.05;;;;;;;;;;5027038;28;20436;-88
2023/04/17 01:39:38;;;;;;;42.83;35.10;;;;;;;;;;5017455;28;20419;-88
2023/04/17 01:42:04;;;;;;;40.60;33.97;;;;;;;;;;5033647;28;20446;-88
2023/04/17 01:44:30;;;;;;;43.50;35.30;;;;;;;;;;5017003;28;20449;-88
2023/04/17 01:46:56;;;;;;;41.10;34.90;;;;;;;;;;5003549;28;20422;-88
2023/04/17 01:49:22;;;;;;;40.45;34.42;;;;;;;;;;5012660;28;20427;-88
2023/04/17 01:51:48;;;;;;;41.97;35.17;;;;;;;;;;5003354;28;20441;-88
2023/04/17 01:54:14;;;;;;;39.53;35.08;;;;;;;;;;5033205;28;20437;-88
2023/04/17 01:56:41;;;;;;;42.55;35.38;;;;;;;;;;5017409;28;20429;-88
2023/04/17 01:59:07;;;;;;;41.97;35.55;;;;;;;;;;5013139;28;20426;-87
2023/04/17 02:01:35;;;;;;;41.17;35.17;;;;;;;;;;5016086;28;20429;-88
2023/04/17 02:04:01;;;;;;;46.20;36.42;;;;;;;;;;5013136;28;20434;-80
2023/04/17 02:06:27;;;;;;;43.53;35.17;;;;;;;;;;5014759;28;20422;-80
2023/04/17 02:08:53;;;;;;;44.97;36.17;;;;;;;;;;5017526;28;20500;-80
2023/04/17 02:11:19;;;;;;;42.75;36.55;;;;;;;;;;5015244;28;20433;-80
2023/04/17 02:13:45;;;;;;;43.75;35.95;;;;;;;;;;5033077;28;20483;-80
2023/04/17 02:16:11;;;;;;;43.75;36.58;;;;;;;;;;5005728;28;20446;-81
2023/04/17 02:18:38;;;;;;;42.28;35.65;;;;;;;;;;5020041;28;20428;-80
2023/04/17 02:21:05;;;;;;;42.03;35.78;;;;;;;;;;5022469;28;20425;-87
2023/04/17 02:23:31;;;;;;;41.08;34.53;;;;;;;;;;5031606;28;20456;-88
2023/04/17 02:25:57;;;;;;;40.38;34.85;;;;;;;;;;5031831;28;20474;-89
2023/04/17 02:28:23;;;;;;;39.80;35.17;;;;;;;;;;5040791;28;20429;-88
2023/04/17 02:30:49;;;;;;;39.55;34.60;;;;;;;;;;5034902;28;20406;-88
2023/04/17 02:33:15;;;;;;;37.92;33.55;;;;;;;;;;5039822;28;20491;-88
2023/04/17 02:35:41;;;;;;;37.00;29.73;;;;;;;;;;5054280;28;20192;-87
2023/04/17 02:38:07;;;;;;;39.63;33.95;;;;;;;;;;5051018;28;20420;-80
2023/04/17 02:40:33;;;;;;;33.63;28.80;;;;;;;;;;5036114;28;20180;-80
2023/04/17 02:42:59;;;;;;;38.65;31.85;;;;;;;;;;5053916;28;20502;-80
2023/04/17 02:45:26;;;;;;;40.20;34.83;;;;;;;;;;5036315;28;20633;-81
2023/04/17 02:47:52;;;;;;;39.42;34.10;;;;;;;;;;5025520;28;20428;-82
2023/04/17 02:50:18;;;;;;;40.20;34.13;;;;;;;;;;5047731;28;20444;-82
2023/04/17 02:52:44;;;;;;;39.92;34.72;;;;;;;;;;5017877;28;20431;-83
2023/04/17 02:55:10;;;;;;;41.97;35.15;;;;;;;;;;5031184;28;20425;-82
2023/04/17 02:57:36;;;;;;;40.33;35.07;;;;;;;;;;5019317;28;20432;-83
2023/04/17 03:00:06;;;;;;;41.85;34.65;;;;;;;;;;5048676;28;20487;-82
2023/04/17 03:02:32;;;;;;;40.60;34.03;;;;;;;;;;5018033;28;20436;-83
2023/04/17 03:05:00;;;;;;;40.47;33.85;;;;;;;;;;5046962;28;20433;-82
2023/04/17 03:07:27;;;;;;;41.55;34.72;;;;;;;;;;5020159;28;20447;-82
2023/04/17 03:09:56;;;;;;;39.93;34.70;;;;;;;;;;5053692;28;20408;-82
2023/04/17 03:12:22;;;;;;;38.50;34.05;;;;;;;;;;5052285;28;20423;-88
2023/04/17 03:14:48;;;;;;;40.75;35.20;;;;;;;;;;5033902;28;20445;-87
2023/04/17 03:17:15;;;;;;;42.28;34.65;;;;;;;;;;5027829;28;20477;-88
2023/04/17 03:19:41;;;;;;;40.10;34.63;;;;;;;;;;5054282;28;20438;-88
2023/04/17 03:22:07;;;;;;;40.22;34.83;;;;;;;;;;5041824;28;20421;-89
2023/04/17 03:24:33;;;;;;;41.13;35.17;;;;;;;;;;5052103;28;20448;-80
2023/04/17 03:26:59;;;;;;;42.35;35.88;;;;;;;;;;5035505;28;20403;-85
2023/04/17 03:29:26;;;;;;;40.40;34.60;;;;;;;;;;5051233;28;20420;-85
2023/04/17 03:31:52;;;;;;;43.33;36.20;;;;;;;;;;5052115;28;20481;-85
2023/04/17 03:34:18;;;;;;;42.78;36.13;;;;;;;;;;5032122;28;20422;-84
2023/04/17 03:36:45;;;;;;;42.78;35.95;;;;;;;;;;5047836;28;20477;-84
2023/04/17 03:39:12;;;;;;;42.50;35.85;;;;;;;;;;5051908;28;20440;-84
2023/04/17 03:41:38;;;;;;;46.05;36.47;;;;;;;;;;5052249;28;20488;-84
2023/04/17 03:44:05;;;;;;;42.25;35.80;;;;;;;;;;5051757;28;20426;-85
2023/04/17 03:46:31;;;;;;;46.20;37.63;;;;;;;;;;5030304;28;20436;-85
2023/04/17 03:48:57;;;;;;;42.60;36.03;;;;;;;;;;5029178;28;20427;-85
2023/04/17 03:51:23;;;;;;;47.08;37.85;;;;;;;;;;5046900;28;20428;-85
2023/04/17 03:53:49;;;;;;;46.47;38.03;;;;;;;;;;5047733;28;20416;-85
2023/04/17 03:56:16;;;;;;;49.10;38.10;;;;;;;;;;5040523;28;20465;-82
2023/04/17 03:58:42;;;;;;;49.92;38.30;;;;;;;;;;5045493;28;20416;-84
2023/04/17 04:01:09;;;;;;;48.58;38.40;;;;;;;;;;5031254;28;20637;-88
2023/04/17 04:03:36;;;;;;;49.00;38.57;;;;;;;;;;5028708;28;20524;-87
2023/04/17 04:06:02;;;;;;;48.42;39.25;;;;;;;;;;5052862;28;20409;-82
2023/04/17 04:08:28;;;;;;;48.58;38.90;;;;;;;;;;5048862;28;20433;-82
2023/04/17 04:10:54;;;;;;;49.10;38.55;;;;;;;;;;5051753;28;20399;-82
2023/04/17 04:13:20;;;;;;;47.10;38.45;;;;;;;;;;5047140;28;20427;-82
2023/04/17 04:15:46;;;;;;;48.28;38.65;;;;;;;;;;5031106;28;20426;-82
2023/04/17 04:18:12;;;;;;;48.17;39.10;;;;;;;;;;5043037;28;20602;-82
2023/04/17 04:20:38;;;;;;;47.42;38.65;;;;;;;;;;5051256;28;20432;-82
2023/04/17 04:23:05;;;;;;;48.15;38.65;;;;;;;;;;5029680;28;20467;-82
2023/04/17 04:25:32;;;;;;;49.35;38.15;;;;;;;;;;5021005;28;20418;-82
2023/04/17 04:28:00;;;;;;;49.35;39.13;;;;;;;;;;5050264;28;20427;-82
2023/04/17 04:30:29;;;;;;;47.53;38.53;;;;;;;;;;5048515;28;20427;-82
2023/04/17 04:32:55;;;;;;;49.25;39.10;;;;;;;;;;5051673;28;20411;-82
2023/04/17 04:35:24;;;;;;;49.40;39.83;;;;;;;;;;5051677;28;20426;-85
2023/04/17 04:37:53;;;;;;;48.10;38.17;;;;;;;;;;5051871;28;20435;-84
2023/04/17 04:40:20;;;;;;;43.45;35.78;;;;;;;;;;5006034;28;20409;-85
2023/04/17 04:42:50;;;;;;;49.30;37.92;;;;;;;;;;5030943;28;20424;-85
2023/04/17 04:45:16;;;;;;;47.58;38.38;;;;;;;;;;5044504;28;20451;-85
2023/04/17 04:47:42;;;;;;;43.50;33.30;;;;;;;;;;5050585;28;20274;-85
2023/04/17 04:50:08;;;;;;;49.22;37.72;;;;;;;;;;5051434;28;20434;-80
2023/04/17 04:52:34;;;;;;;50.72;38.78;;;;;;;;;;5046020;28;20458;-81
2023/04/17 04:55:00;;;;;;;53.88;40.22;;;;;;;;;;5025942;28;20443;-80
2023/04/17 04:57:27;;;;;;;52.85;40.88;;;;;;;;;;5046680;28;20416;-81
2023/04/17 04:59:53;;;;;;;52.27;40.90;;;;;;;;;;5050769;28;20542;-81
2023/04/17 05:02:19;;;;;;;54.22;41.85;;;;;;;;;;5029704;28;20480;-81
2023/04/17 05:04:45;;;;;;;51.25;41.05;;;;;;;;;;5028976;28;20421;-81
2023/04/17 05:07:11;;;;;;;51.15;40.40;;;;;;;;;;5050561;28;20438;-82
2023/04/17 05:09:37;;;;;;;51.70;40.97;;;;;;;;;;5048420;28;20427;-82
2023/04/17 05:12:03;;;;;;;49.90;40.38;;;;;;;;;;5031484;28;20429;-81
2023/04/17 05:14:29;;;;;;;53.20;41.10;;;;;;;;;;5047770;28;20432;-81
2023/04/17 05:16:55;;;;;;;55.60;41.95;;;;;;;;;;5054506;28;20438;-81
2023/04/17 05:19:21;;;;;;;54.20;42.40;;;;;;;;;;5028349;28;20440;-82
2023/04/17 05:21:48;;;;;;;53.80;42.25;;;;;;;;;;5053600;28;20430;-81
2023/04/17 05:24:14;;;;;;;55.83;42.50;;;;;;;;;;5033100;28;20413;-82
2023/04/17 05:26:40;;;;;;;52.05;40.95;;;;;;;;;;5033081;28;20502;-83
2023/04/17 05:29:06;;;;;;;53.55;41.55;;;;;;;;;;5035877;28;20516;-82
2023/04/17 05:31:32;;;;;;;54.55;41.80;;;;;;;;;;5021224;28;20428;-82
2023/04/17 05:33:58;;;;;;;53.45;42.50;;;;;;;;;;5034641;28;20504;-82
2023/04/17 05:36:25;;;;;;;54.78;42.22;;;;;;;;;;5025170;28;20521;-82
2023/04/17 05:38:52;;;;;;;52.35;39.22;;;;;;;;;;5018914;28;20445;-82
2023/04/17 05:41:18;;;;;;;53.60;40.70;;;;;;;;;;5046686;28;20406;-88
2023/04/17 05:43:44;;;;;;;50.05;38.83;;;;;;;;;;5051077;28;20410;-87
2023/04/17 05:46:10;;;;;;;53.75;41.30;;;;;;;;;;5035465;28;20416;-87
2023/04/17 05:48:36;;;;;;;52.30;42.00;;;;;;;;;;5036721;28;20435;-87
2023/04/17 05:51:02;;;;;;;53.15;41.00;;;;;;;;;;5038003;28;20423;-87
2023/04/17 05:53:29;;;;;;;54.28;42.35;;;;;;;;;;5033953;28;20436;-88
2023/04/17 05:55:55;;;;;;;54.15;42.50;;;;;;;;;;5034123;28;20491;-88
2023/04/17 05:58:21;;;;;;;55.85;42.38;;;;;;;;;;5047027;28;20423;-88
2023/04/17 06:00:47;;;;;;;52.67;41.47;;;;;;;;;;5037682;28;20412;-88
2023/04/17 06:03:14;;;;;;;53.45;41.67;;;;;;;;;;5036925;28;20435;-87
2023/04/17 06:05:40;;;;;;;54.53;41.63;;;;;;;;;;5035656;28;20410;-87
2023/04/17 06:08:06;;;;;;;56.15;43.38;;;;;;;;;;5034331;28;20410;-88
2023/04/17 06:10:32;;;;;;;57.40;42.95;;;;;;;;;;5019129;28;20536;-88
2023/04/17 06:12:59;;;;;;;54.67;42.92;;;;;;;;;;5034193;28;20409;-87
2023/04/17 06:15:26;;;;;;;55.88;43.00;;;;;;;;;;5026876;28;20461;-85
2023/04/17 06:17:52;;;;;;;54.25;42.55;;;;;;;;;;5033764;28;20446;-87
2023/04/17 06:20:18;;;;;;;57.30;43.35;;;;;;;;;;5016679;28;20446;-88
2023/04/17 06:22:45;;;;;;;58.75;42.80;;;;;;;;;;5035448;28;20511;-87
2023/04/17 06:25:12;;;;;;;53.75;41.80;;;;;;;;;;5030422;28;20461;-88
2023/04/17 06:27:38;;;;;;;57.92;43.53;;;;;;;;;;5036877;28;20457;-86
2023/04/17 06:30:05;;;;;;;55.90;43.97;;;;;;;;;;5038256;28;20408;-81
2023/04/17 06:32:31;;;;;;;54.13;42.63;;;;;;;;;;5048717;28;20453;-81
2023/04/17 06:34:57;;;;;;;54.92;43.05;;;;;;;;;;5030231;23;20539;-79
2023/04/17 06:37:23;;;;;;;47.90;39.20;;;;;;;;;;4999458;28;21254;-79
2023/04/17 06:39:49;;;;;;;54.60;41.92;;;;;;;;;;5000598;28;20452;-79
2023/04/17 06:42:15;;;;;;;55.45;42.20;;;;;;;;;;5000166;28;20428;-79
2023/04/17 06:44:42;;;;;;;50.50;37.60;;;;;;;;;;4993364;28;20275;-80
2023/04/17 06:47:08;;;;;;;53.72;42.75;;;;;;;;;;4996635;28;20537;-85
2023/04/17 06:49:34;;;;;;;55.67;42.65;;;;;;;;;;5000727;28;20465;-85
2023/04/17 06:52:00;;;;;;;49.53;38.00;;;;;;;;;;5018259;28;20184;-85
2023/04/17 06:54:26;;;;;;;54.20;42.63;;;;;;;;;;5001106;28;20445;-85
2023/04/17 06:56:52;;;;;;;52.67;38.80;;;;;;;;;;5001682;28;20212;-86
2023/04/17 06:59:18;;;;;;;52.93;41.00;;;;;;;;;;5017498;28;20429;-85
2023/04/17 07:01:45;;;;;;;51.60;42.20;;;;;;;;;;5017309;28;20413;-85
2023/04/17 07:04:11;;;;;;;51.87;42.83;;;;;;;;;;4996073;28;20514;-88
2023/04/17 07:06:38;;;;;;;50.23;38.50;;;;;;;;;;4998066;28;20185;-88
2023/04/17 07:09:04;;;;;;;51.38;42.17;;;;;;;;;;5017483;28;20466;-89
2023/04/17 07:11:30;;;;;;;52.67;42.40;;;;;;;;;;4999537;28;20425;-89
2023/04/17 07:13:57;;;;;;;49.90;41.05;;;;;;;;;;5000700;28;20417;-89
2023/04/17 07:16:23;;;;;;;49.95;38.78;;;;;;;;;;5017231;28;20421;-88
2023/04/17 07:18:50;;;;;;;51.78;42.65;;;;;;;;;;5016610;28;20406;-88
2023/04/17 07:21:16;;;;;;;50.20;38.40;;;;;;;;;;5004551;28;20254;-86
2023/04/17 07:23:42;;;;;;;52.37;42.50;;;;;;;;;;4997488;28;20418;-86
2023/04/17 07:26:08;;;;;;;53.63;42.75;;;;;;;;;;4980672;28;20431;-85
2023/04/17 07:28:34;;;;;;;53.17;43.00;;;;;;;;;;4981776;28;20466;-85
2023/04/17 07:31:00;;;;;;;50.13;37.87;;;;;;;;;;5013999;28;20240;-85
2023/04/17 07:33:26;;;;;;;48.40;37.83;;;;;;;;;;5003398;28;20184;-86
2023/04/17 07:35:52;;;;;;;53.33;39.42;;;;;;;;;;5036689;28;20435;-86
2023/04/17 07:38:19;;;;;;;49.92;41.33;;;;;;;;;;5053038;28;20458;-86
2023/04/17 07:40:45;;;;;;;50.72;43.25;;;;;;;;;;5020437;28;20408;-86
2023/04/17 07:43:11;;;;;;;52.65;43.58;;;;;;;;;;5015964;28;20414;-86
2023/04/17 07:45:37;;;;;;;52.53;44.35;;;;;;;;;;5016182;28;20416;-86
2023/04/17 07:48:03;;;;;;;51.50;40.07;;;;;;;;;;5018533;28;20199;-86
2023/04/17 07:50:29;;;;;;;51.42;43.92;;;;;;;;;;5016936;28;20428;-81
2023/04/17 07:52:56;;;;;;;52.37;43.57;;;;;;;;;;5036262;28;20447;-81
2023/04/17 07:55:22;;;;;;;53.00;39.00;;;;;;;;;;5029598;28;20486;-86
2023/04/17 07:57:50;;;;;;;46.03;37.67;;;;;;;;;;5031014;28;20207;-86
2023/04/17 08:00:16;;;;;;;49.72;38.50;;;;;;;;;;5036130;28;20415;-86
2023/04/17 08:02:43;;;;;;;50.35;43.25;;;;;;;;;;5019150;28;20407;-80
2023/04/17 08:05:09;;;;;;;48.70;42.55;;;;;;;;;;5034573;28;20423;-79
2023/04/17 08:07:35;;;;;;;49.65;42.88;;;;;;;;;;5035905;28;20435;-79
2023/04/17 08:10:02;;;;;;;48.03;42.40;;;;;;;;;;5019266;28;20408;-85
2023/04/17 08:12:28;;;;;;;45.85;40.85;;;;;;;;;;5031548;28;20500;-86
2023/04/17 08:14:54;;;;;;;46.60;40.83;;;;;;;;;;5016222;28;20499;-86
2023/04/17 08:17:22;;;;;;;48.63;41.55;;;;;;;;;;5027870;28;20441;-86
2023/04/17 08:19:56;;;;;;;46.60;41.50;;;;;;;;;;5016829;28;20504;-85
2023/04/17 08:22:23;;;;;;;48.03;40.67;;;;;;;;;;5010147;28;20420;-86
2023/04/17 08:24:53;;;;;;;45.60;40.63;;;;;;;;;;4999425;28;20410;-80
2023/04/17 08:27:19;;;;;;;46.30;41.10;;;;;;;;;;5015206;28;20501;-79
2023/04/17 08:29:45;;;;;;;45.55;40.13;;;;;;;;;;5001406;28;20481;-80
2023/04/17 08:32:11;;;;;;;46.50;40.63;;;;;;;;;;5019152;28;20424;-79
2023/04/17 08:34:37;;;;;;;45.43;40.43;;;;;;;;;;5009663;28;20444;-79
2023/04/17 08:37:04;;;;;;;44.97;40.08;;;;;;;;;;4999412;28;20516;-79
2023/04/17 08:39:30;;;;;;;46.25;40.22;;;;;;;;;;4995569;28;20537;-79
2023/04/17 08:42:00;;;;;;;45.90;40.38;;;;;;;;;;4979998;28;20415;-80
2023/04/17 08:44:27;;;;;;;45.13;40.22;;;;;;;;;;5010505;28;20473;-80
2023/04/17 08:46:55;;;;;;;44.13;39.45;;;;;;;;;;5015223;28;20497;-81
2023/04/17 08:49:22;;;;;;;43.25;38.80;;;;;;;;;;5017827;28;20409;-80
2023/04/17 08:51:48;;;;;;;43.88;38.15;;;;;;;;;;5015699;28;20414;-81
2023/04/17 08:54:14;;;;;;;41.22;36.72;;;;;;;;;;4983548;28;20418;-81
2023/04/17 08:56:40;;;;;;;41.17;36.78;;;;;;;;;;5008800;28;20429;-81
2023/04/17 08:59:06;;;;;;;40.38;35.95;;;;;;;;;;5019489;28;20488;-80
2023/04/17 09:01:33;;;;;;;41.78;36.20;;;;;;;;;;4989245;28;20405;-88
2023/04/17 09:03:59;;;;;;;39.00;34.90;;;;;;;;;;4983477;28;20411;-89
2023/04/17 09:06:26;;;;;;;38.40;34.40;;;;;;;;;;4997614;28;20418;-89
2023/04/17 09:09:02;;;;;;;40.60;36.22;;;;;;;;;;4999662;28;20439;-89
2023/04/17 09:11:29;;;;;;;44.53;37.15;;;;;;;;;;4999266;28;20433;-88
2023/04/17 09:13:55;;;;;;;39.97;35.80;;;;;;;;;;4987184;28;20443;-88
2023/04/17 09:16:24;;;;;;;41.78;37.38;;;;;;;;;;4999040;28;20435;-89
2023/04/17 09:18:50;;;;;;;40.35;36.08;;;;;;;;;;5002480;28;20500;-89
2023/04/17 09:21:17;;;;;;;39.60;35.50;;;;;;;;;;5002889;28;20417;-89
2023/04/17 09:23:47;;;;;;;39.75;35.65;;;;;;;;;;5000770;28;20415;-88
2023/04/17 09:26:14;;;;;;;39.95;35.65;;;;;;;;;;5000071;28;20407;-87
2023/04/17 09:28:42;;;;;;;39.17;35.28;;;;;;;;;;5019612;28;20445;-89
2023/04/17 09:31:29;;;;;;;37.90;34.00;;;;;;;;;;5018444;28;20441;-89
2023/04/17 09:34:01;;;;;;;36.85;33.15;;;;;;;;;;5021026;28;20410;-89
2023/04/17 09:36:31;;;;;;;36.05;32.35;;;;;;;;;;5023674;28;20431;-89
2023/04/17 09:39:03;;;;;;;37.28;33.47;;;;;;;;;;5019271;28;20405;-89
2023/04/17 09:41:38;;;;;;;39.08;35.08;;;;;;;;;;5038738;28;20533;-88
2023/04/17 09:44:05;;;;;;;37.03;33.20;;;;;;;;;;5033860;28;20428;-89
2023/04/17 09:46:44;;;;;;;38.20;33.97;;;;;;;;;;5019355;28;20458;-89
2023/04/17 09:49:10;;;;;;;36.55;32.70;;;;;;;;;;5029228;28;20411;-88
2023/04/17 09:51:37;;;;;;;33.40;29.98;;;;;;;;;;5038323;28;20415;-80
2023/04/17 09:54:05;;;;;;;33.17;28.97;;;;;;;;;;5021492;28;20429;-80
2023/04/17 09:56:32;;;;;;;32.53;29.33;;;;;;;;;;5001700;28;20448;-81
2023/04/17 09:59:00;;;;;;;33.05;29.65;;;;;;;;;;5001858;28;20476;-80
2023/04/17 10:01:26;;;;;;;31.60;28.50;;;;;;;;;;5040027;28;20435;-80
2023/04/17 10:03:52;;;;;;;32.60;29.10;;;;;;;;;;5021354;28;20414;-81
2023/04/17 10:06:18;;;;;;;31.65;28.25;;;;;;;;;;5017073;28;20418;-81
2023/04/17 10:08:44;;;;;;;30.52;27.33;;;;;;;;;;5036234;28;20408;-89
2023/04/17 10:11:11;;;;;;;28.17;25.17;;;;;;;;;;5030597;28;20504;-89
2023/04/17 10:13:37;;;;;;;28.42;25.60;;;;;;;;;;5037454;28;20412;-89
2023/04/17 10:16:04;;;;;;;27.48;24.58;;;;;;;;;;5034027;28;20437;-89
2023/04/17 10:18:31;;;;;;;28.42;25.52;;;;;;;;;;5018685;28;20500;-89
2023/04/17 10:21:17;;;;;;;26.83;23.95;;;;;;;;;;5021466;28;20408;-89
2023/04/17 10:23:43;;;;;;;23.80;21.30;;;;;;;;;;5028435;28;20457;-80
2023/04/17 10:26:25;;;;;;;24.70;22.20;;;;;;;;;;5001708;28;20446;-80
2023/04/17 10:28:53;;;;;;;24.08;21.58;;;;;;;;;;5049088;28;20423;-80
2023/04/17 10:31:19;;;;;;;24.45;21.77;;;;;;;;;;5037809;28;20446;-80
2023/04/17 10:34:03;;;;;;;25.20;22.60;;;;;;;;;;5017861;28;20417;-80
2023/04/17 10:36:38;;;;;;;24.08;21.58;;;;;;;;;;5022826;28;20435;-80
2023/04/17 10:39:14;;;;;;;25.57;22.93;;;;;;;;;;5037291;28;20435;-80
2023/04/17 10:42:01;;;;;;;25.08;22.58;;;;;;;;;;5054531;28;20402;-81
2023/04/17 10:44:27;;;;;;;25.00;22.50;;;;;;;;;;5037084;28;20468;-81
2023/04/17 10:46:53;;;;;;;24.65;21.98;;;;;;;;;;5018169;28;20461;-81
2023/04/17 10:49:21;;;;;;;25.42;22.73;;;;;;;;;;5000919;28;20417;-81
2023/04/17 10:51:47;;;;;;;25.58;23.08;;;;;;;;;;5034877;28;20410;-81
2023/04/17 10:54:14;;;;;;;25.23;22.48;;;;;;;;;;5024705;28;20403;-81
2023/04/17 10:56:41;;;;;;;23.45;21.05;;;;;;;;;;5037033;28;20434;-81
2023/04/17 10:59:08;;;;;;;24.77;22.15;;;;;;;;;;5024627;28;20445;-81
2023/04/17 11:01:41;;;;;;;23.50;21.00;;;;;;;;;;5017405;28;20546;-81
2023/04/17 11:04:08;;;;;;;23.42;21.10;;;;;;;;;;5052112;28;20404;-81
2023/04/17 11:06:41;;;;;;;22.65;20.42;;;;;;;;;;5034397;28;20435;-81
2023/04/17 11:09:09;;;;;;;22.15;19.90;;;;;;;;;;5034347;28;20409;-81
2023/04/17 11:11:40;;;;;;;25.10;20.98;;;;;;;;;;5023003;28;20400;-81
2023/04/17 11:14:09;;;;;;;23.35;20.63;;;;;;;;;;5036572;28;20432;-80
2023/04/17 11:16:40;;;;;;;22.47;20.07;;;;;;;;;;5035845;28;20436;-80
2023/04/17 11:19:08;;;;;;;21.95;19.67;;;;;;;;;;5036829;28;20538;-80
2023/04/17 11:21:38;;;;;;;22.03;19.90;;;;;;;;;;5035949;28;20421;-80
2023/04/17 11:24:04;;;;;;;20.35;18.27;;;;;;;;;;5035738;28;20462;-80
2023/04/17 11:26:30;;;;;;;20.27;18.15;;;;;;;;;;5036216;28;20416;-80
2023/04/17 11:28:56;;;;;;;21.50;19.38;;;;;;;;;;5029385;28;20429;-80
2023/04/17 11:31:22;;;;;;;21.00;19.00;;;;;;;;;;5000220;28;20412;-80
2023/04/17 11:33:48;;;;;;;20.45;18.42;;;;;;;;;;5033586;28;20467;-80
2023/04/17 11:36:15;;;;;;;20.52;18.52;;;;;;;;;;4999910;28;20500;-80
2023/04/17 11:38:47;;;;;;;20.80;18.70;;;;;;;;;;4999564;28;20425;-80
2023/04/17 11:41:14;;;;;;;19.77;17.77;;;;;;;;;;5015967;28;20409;-81
2023/04/17 11:43:40;;;;;;;19.55;17.65;;;;;;;;;;5034051;28;20441;-85
2023/04/17 11:46:06;;;;;;;19.90;18.00;;;;;;;;;;4999763;28;20432;-85
2023/04/17 11:48:32;;;;;;;19.35;17.40;;;;;;;;;;4999959;28;20402;-80
2023/04/17 11:51:00;;;;;;;19.75;17.75;;;;;;;;;;5041689;28;20424;-80
2023/04/17 11:53:26;;;;;;;20.55;17.42;;;;;;;;;;5035855;28;20427;-80
2023/04/17 11:56:13;;;;;;;20.17;18.17;;;;;;;;;;5034697;28;20422;-80
2023/04/17 11:58:46;;;;;;;19.63;17.65;;;;;;;;;;5053109;28;20404;-80
2023/04/17 12:01:12;;;;;;;18.58;16.77;;;;;;;;;;5015867;28;20456;-79
2023/04/17 12:03:38;;;;;;;19.70;17.67;;;;;;;;;;5031138;28;20421;-80
2023/04/17 12:06:05;;;;;;;18.10;16.20;;;;;;;;;;5016256;28;20428;-80
2023/04/17 12:08:40;;;;;;;17.80;16.10;;;;;;;;;;5015338;28;20448;-80
2023/04/17 12:11:06;;;;;;;18.03;16.23;;;;;;;;;;5016115;28;20421;-80
2023/04/17 12:13:34;;;;;;;18.58;16.67;;;;;;;;;;5013970;28;20432;-80
2023/04/17 12:16:00;;;;;;;17.23;15.63;;;;;;;;;;5053291;28;20403;-80
2023/04/17 12:18:26;;;;;;;19.23;17.35;;;;;;;;;;5018463;28;20428;-80
2023/04/17 12:20:52;;;;;;;18.33;16.30;;;;;;;;;;5032411;28;20405;-82
2023/04/17 12:23:18;;;;;;;18.20;16.30;;;;;;;;;;5032198;28;20413;-85
2023/04/17 12:25:45;;;;;;;16.73;15.13;;;;;;;;;;5027541;28;20457;-85
2023/04/17 12:28:11;;;;;;;18.98;15.30;;;;;;;;;;4999300;28;20425;-85
2023/04/17 12:30:38;;;;;;;16.10;14.50;;;;;;;;;;5012745;28;20416;-85
2023/04/17 12:33:05;;;;;;;16.35;14.75;;;;;;;;;;5018986;28;20420;-85
2023/04/17 12:35:32;;;;;;;17.55;15.75;;;;;;;;;;5034798;28;20495;-86
2023/04/17 12:37:59;;;;;;;15.95;14.45;;;;;;;;;;5049572;28;20433;-80
2023/04/17 12:40:25;;;;;;;17.13;14.65;;;;;;;;;;4999455;28;20475;-80
2023/04/17 12:42:51;;;;;;;16.38;14.50;;;;;;;;;;5039372;28;20397;-80
2023/04/17 12:45:18;;;;;;;16.95;15.25;;;;;;;;;;5018739;28;20478;-80
2023/04/17 12:47:44;;;;;;;15.98;14.40;;;;;;;;;;5014979;28;20424;-80
2023/04/17 12:50:11;;;;;;;15.70;14.20;;;;;;;;;;5015737;28;20406;-80
2023/04/17 12:52:37;;;;;;;16.17;14.57;;;;;;;;;;5047949;28;20400;-80
2023/04/17 12:55:05;;;;;;;15.80;13.73;;;;;;;;;;5034706;28;20400;-89
2023/04/17 12:57:31;;;;;;;15.07;13.57;;;;;;;;;;5031055;28;20439;-89
2023/04/17 12:59:57;;;;;;;14.90;13.35;;;;;;;;;;5018368;28;20506;-88
2023/04/17 13:02:23;;;;;;;14.80;13.30;;;;;;;;;;5018682;28;20507;-88
2023/04/17 13:04:49;;;;;;;14.10;12.70;;;;;;;;;;5026790;28;20398;-89
2023/04/17 13:07:16;;;;;;;12.88;11.45;;;;;;;;;;4999041;28;20420;-89
2023/04/17 13:09:42;;;;;;;12.90;11.60;;;;;;;;;;4999185;28;20435;-89
2023/04/17 13:12:09;;;;;;;13.82;11.93;;;;;;;;;;5015466;28;20468;-82
2023/04/17 13:14:36;;;;;;;14.35;12.90;;;;;;;;;;5014999;28;20412;-81
2023/04/17 13:17:03;;;;;;;14.20;12.60;;;;;;;;;;5036114;28;20209;-82
2023/04/17 13:19:30;;;;;;;16.52;13.38;;;;;;;;;;5035500;28;20436;-82
2023/04/17 13:21:56;;;;;;;15.68;12.93;;;;;;;;;;5052265;28;20404;-82
2023/04/17 13:24:22;;;;;;;15.05;13.45;;;;;;;;;;5034983;28;20477;-82
2023/04/17 13:26:49;;;;;;;14.60;13.07;;;;;;;;;;5014988;28;20471;-89
2023/04/17 13:29:15;;;;;;;16.02;14.20;;;;;;;;;;4999003;28;20425;-82
2023/04/17 13:31:41;;;;;;;25.50;13.60;;;;;;;;;;5014838;28;20501;-82
2023/04/17 13:34:07;;;;;;;15.25;13.65;;;;;;;;;;5015355;28;20444;-81
2023/04/17 13:36:33;;;;;;;15.60;14.10;;;;;;;;;;5018534;28;20448;-82
2023/04/17 13:38:59;;;;;;;14.93;13.43;;;;;;;;;;5018233;28;20432;-82
2023/04/17 13:41:25;;;;;;;14.90;13.50;;;;;;;;;;5002696;28;20406;-81
2023/04/17 13:43:52;;;;;;;15.02;13.48;;;;;;;;;;5004636;28;20422;-88
2023/04/17 13:46:18;;;;;;;15.27;13.88;;;;;;;;;;5018515;28;20429;-89
2023/04/17 13:48:45;;;;;;;14.75;13.20;;;;;;;;;;5021367;28;20415;-88
2023/04/17 13:51:11;;;;;;;15.82;14.15;;;;;;;;;;5021681;28;20430;-88
2023/04/17 13:53:37;;;;;;;14.50;13.13;;;;;;;;;;5023043;28;20449;-88
2023/04/17 13:56:03;;;;;;;15.18;13.13;;;;;;;;;;5001733;28;20406;-88
2023/04/17 13:58:32;;;;;;;16.30;14.10;;;;;;;;;;5016770;28;20413;-88
2023/04/17 14:00:58;;;;;;;16.10;13.23;;;;;;;;;;5021731;28;20415;-81
2023/04/17 14:03:25;;;;;;;15.45;13.85;;;;;;;;;;5022168;28;20424;-81
2023/04/17 14:05:51;;;;;;;13.50;12.18;;;;;;;;;;5037658;28;20400;-81
2023/04/17 14:08:17;;;;;;;13.60;12.20;;;;;;;;;;5021420;28;20465;-81
2023/04/17 14:10:43;;;;;;;15.15;13.57;;;;;;;;;;5037552;28;20416;-81
2023/04/17 14:13:09;;;;;;;15.23;13.73;;;;;;;;;;5037715;28;20534;-81
2023/04/17 14:15:35;;;;;;;15.03;13.63;;;;;;;;;;5021518;28;20462;-81